Time;durP1;ratioP1;P1;durP2;ratioP2;P2;SDS_P1;SDS_P2;PMS_P1;PMS_P2;Temp;Humidity;BMP_temperature;BMP_pressure;BME280_temperature;BME280_humidity;BME280_pressure;Samples;Min_cycle;Max_cycle;Signal;HPM_P1;HPM_P2
2021/06/16 00:01:06;;;;;;;4.72;3.60;;;;;;;20.80;62.26;98028.38;5049836;28;20249;-52
2021/06/16 00:03:33;;;;;;;4.30;3.90;;;;;;;21.06;61.30;98028.00;5048288;28;20217;-52
2021/06/16 00:05:59;;;;;;;3.92;3.40;;;;;;;20.55;61.94;98024.22;5051199;28;20237;-52
2021/06/16 00:08:27;;;;;;;3.90;3.42;;;;;;;21.47;59.84;98032.50;5045280;28;21107;-51
2021/06/16 00:10:53;;;;;;;4.55;3.72;;;;;;;21.47;60.19;98029.03;5048563;28;20245;-52
2021/06/16 00:13:21;;;;;;;3.78;3.47;;;;;;;20.42;62.28;98029.69;5048019;28;20234;-54
2021/06/16 00:15:48;;;;;;;3.95;3.53;;;;;;;21.21;60.29;98028.53;5049111;28;20233;-51
2021/06/16 00:18:14;;;;;;;4.00;3.55;;;;;;;21.28;59.90;98032.34;5047387;28;20290;-51
2021/06/16 00:20:41;;;;;;;4.38;3.97;;;;;;;20.86;60.91;98019.91;5048981;28;20611;-51
2021/06/16 00:23:09;;;;;;;4.80;3.60;;;;;;;20.85;60.70;98026.19;5048085;28;20214;-53
2021/06/16 00:25:37;;;;;;;5.07;3.40;;;;;;;21.08;60.65;98026.06;5050416;28;20615;-52
2021/06/16 00:28:04;;;;;;;6.22;3.97;;;;;;;20.95;61.05;98019.16;5047304;28;20618;-53
2021/06/16 00:30:31;;;;;;;3.85;3.47;;;;;;;20.41;62.29;98025.31;5050864;28;20244;-54
2021/06/16 00:32:58;;;;;;;6.43;3.83;;;;;;;21.18;60.35;98027.00;5049966;28;20237;-51
2021/06/16 00:35:25;;;;;;;4.07;3.78;;;;;;;21.30;60.25;98022.44;5050883;28;20238;-52
2021/06/16 00:37:53;;;;;;;4.35;3.90;;;;;;;21.59;59.89;98025.31;5045526;28;20217;-58
2021/06/16 00:40:24;;;;;;;3.92;3.50;;;;;;;21.21;60.63;98025.88;5049643;28;20232;-52
2021/06/16 00:42:52;;;;;;;4.45;3.35;;;;;;;21.07;60.33;98025.22;5048189;28;20209;-54
2021/06/16 00:45:19;;;;;;;6.57;4.10;;;;;;;21.04;60.38;98029.94;5047005;28;20211;-54
2021/06/16 00:47:46;;;;;;;3.70;3.40;;;;;;;20.72;61.24;98018.41;5048007;28;20225;-51
2021/06/16 00:50:13;;;;;;;4.00;3.53;;;;;;;20.51;61.81;98023.63;5048906;28;20234;-51
2021/06/16 00:52:39;;;;;;;4.88;3.63;;;;;;;20.79;61.73;98026.69;5049458;28;20245;-51
2021/06/16 00:55:08;;;;;;;4.53;3.80;;;;;;;20.69;61.72;98031.06;5049980;28;20214;-51
2021/06/16 00:57:34;;;;;;;5.30;3.78;;;;;;;20.37;62.63;98024.75;5048721;28;20209;-54
2021/06/16 01:00:06;;;;;;;4.18;3.72;;;;;;;20.30;62.65;98031.50;5049298;28;20237;-51
2021/06/16 01:02:34;;;;;;;4.93;3.70;;;;;;;20.67;61.96;98022.41;5049104;28;20229;-53
2021/06/16 01:05:01;;;;;;;4.32;3.92;;;;;;;20.71;62.42;98029.13;5047405;28;20603;-53
2021/06/16 01:07:31;;;;;;;4.38;3.72;;;;;;;20.70;62.25;98027.47;5047583;28;20251;-53
2021/06/16 01:09:59;;;;;;;4.30;3.58;;;;;;;21.53;60.42;98031.97;5049354;28;20320;-54
2021/06/16 01:12:35;;;;;;;4.22;3.80;;;;;;;21.15;61.04;98029.88;5049441;28;20422;-52
2021/06/16 01:15:05;;;;;;;4.13;3.80;;;;;;;21.06;61.28;98028.00;5048540;28;20210;-51
2021/06/16 01:17:36;;;;;;;6.53;4.10;;;;;;;21.05;61.42;98027.19;5046154;28;20253;-52
2021/06/16 01:20:18;;;;;;;4.35;3.55;;;;;;;21.24;60.09;98031.75;5050985;28;20242;-52
2021/06/16 01:22:50;;;;;;;4.43;4.05;;;;;;;20.20;62.99;98034.03;5048840;28;20731;-52
2021/06/16 01:25:25;;;;;;;4.50;3.70;;;;;;;19.72;64.88;98026.34;5047850;28;20217;-53
2021/06/16 01:27:54;;;;;;;4.50;4.10;;;;;;;19.51;65.38;98028.84;5047998;28;20214;-54
2021/06/16 01:30:20;;;;;;;4.43;4.00;;;;;;;19.81;65.08;98041.53;5053254;28;20245;-53
2021/06/16 01:32:47;;;;;;;4.43;3.97;;;;;;;20.73;62.44;98036.00;5052728;28;20250;-52
2021/06/16 01:35:14;;;;;;;4.60;4.15;;;;;;;20.03;64.68;98029.25;5051902;28;20233;-52
2021/06/16 01:37:41;;;;;;;4.95;4.00;;;;;;;20.51;63.09;98028.94;5052757;28;20221;-52
2021/06/16 01:40:11;;;;;;;4.78;4.28;;;;;;;20.76;62.07;98025.13;5048223;28;20233;-51
2021/06/16 01:42:39;;;;;;;4.35;3.95;;;;;;;20.57;62.61;98023.13;5051296;28;20674;-51
2021/06/16 01:45:08;;;;;;;4.40;4.00;;;;;;;20.48;62.72;98020.38;5052994;28;20217;-52
2021/06/16 01:47:36;;;;;;;5.32;4.40;;;;;;;20.20;63.91;98026.09;5052286;28;20221;-54
2021/06/16 01:50:04;;;;;;;5.90;4.05;;;;;;;19.57;65.76;98027.53;5052289;28;20230;-51
2021/06/16 01:52:32;;;;;;;6.18;4.32;;;;;;;19.44;66.24;98032.91;5051579;28;20245;-51
2021/06/16 01:54:58;;;;;;;4.65;4.25;;;;;;;19.35;66.73;98033.63;5052750;28;20214;-52
2021/06/16 01:57:25;;;;;;;4.32;3.75;;;;;;;19.63;65.64;98032.34;5052884;28;20234;-52
2021/06/16 01:59:53;;;;;;;5.18;4.10;;;;;;;19.85;64.89;98031.56;5048906;28;20272;-51
2021/06/16 02:02:21;;;;;;;5.20;4.45;;;;;;;19.72;64.89;98023.69;5048980;28;20226;-52
2021/06/16 02:04:48;;;;;;;6.38;4.22;;;;;;;19.91;65.50;98032.88;5054571;28;20223;-53
2021/06/16 02:07:16;;;;;;;4.78;4.28;;;;;;;19.69;65.19;98028.38;5048368;28;20255;-53
2021/06/16 02:09:45;;;;;;;7.90;4.70;;;;;;;19.31;66.51;98027.72;5051600;28;20716;-51
2021/06/16 02:12:14;;;;;;;4.95;4.45;;;;;;;19.26;66.83;98033.38;5050026;28;20230;-51
2021/06/16 02:14:43;;;;;;;5.20;4.43;;;;;;;19.01;67.31;98034.38;5052146;28;20233;-51
2021/06/16 02:17:11;;;;;;;7.00;4.50;;;;;;;19.02;67.15;98028.16;5051305;28;20242;-51
2021/06/16 02:19:42;;;;;;;6.18;4.85;;;;;;;19.03;67.04;98024.53;5051072;28;20244;-53
2021/06/16 02:22:09;;;;;;;5.00;4.50;;;;;;;19.01;67.00;98023.81;5050089;28;20249;-50
2021/06/16 02:24:35;;;;;;;5.50;4.63;;;;;;;19.07;66.86;98014.56;5052547;28;20298;-54
2021/06/16 02:27:02;;;;;;;5.38;4.72;;;;;;;19.55;66.08;98018.88;5050608;28;20234;-51
2021/06/16 02:29:30;;;;;;;6.18;5.22;;;;;;;19.63;65.60;98021.78;5051488;28;20237;-51
2021/06/16 02:31:57;;;;;;;6.20;4.47;;;;;;;19.33;66.55;98017.88;5050473;28;20286;-54
2021/06/16 02:34:26;;;;;;;5.80;4.70;;;;;;;18.69;68.15;98021.75;5051032;28;20243;-54
2021/06/16 02:36:56;;;;;;;6.13;4.60;;;;;;;19.04;67.51;98020.94;5052177;28;20260;-51
2021/06/16 02:39:28;;;;;;;5.10;4.30;;;;;;;19.37;66.25;98021.97;5051409;28;20249;-53
2021/06/16 02:41:55;;;;;;;5.50;4.40;;;;;;;19.36;66.91;98025.56;5049772;28;20230;-53
2021/06/16 02:44:21;;;;;;;4.10;3.63;;;;;;;19.18;66.86;98019.03;5051360;28;20209;-53
2021/06/16 02:46:50;;;;;;;6.65;4.20;;;;;;;19.49;66.41;98014.06;5047715;28;20241;-53
2021/06/16 02:49:18;;;;;;;5.22;4.53;;;;;;;19.61;65.30;98013.09;5048774;28;20238;-51
2021/06/16 02:51:45;;;;;;;5.10;4.55;;;;;;;19.40;65.92;98016.44;5050385;28;20248;-51
2021/06/16 02:54:17;;;;;;;4.70;4.20;;;;;;;19.21;66.78;98016.19;5049129;28;20233;-51
2021/06/16 02:56:45;;;;;;;4.30;3.90;;;;;;;19.13;66.75;98019.38;5050395;28;20241;-53
2021/06/16 02:59:13;;;;;;;5.40;4.75;;;;;;;18.91;67.75;98021.97;5050539;28;20268;-51
2021/06/16 03:01:40;;;;;;;5.57;4.97;;;;;;;18.89;67.86;98016.78;5051384;28;20332;-53
2021/06/16 03:04:07;;;;;;;6.55;4.75;;;;;;;18.81;68.05;98016.53;5050252;28;20280;-51
2021/06/16 03:06:34;;;;;;;4.13;3.67;;;;;;;19.08;67.99;98016.25;5047464;28;20237;-52
2021/06/16 03:09:01;;;;;;;5.03;4.50;;;;;;;19.17;66.71;98020.00;5051543;28;20271;-51
2021/06/16 03:11:33;;;;;;;4.93;4.40;;;;;;;19.60;65.31;98011.41;5048398;28;20309;-53
2021/06/16 03:14:01;;;;;;;4.70;4.28;;;;;;;19.25;66.02;98014.97;5051399;28;20233;-53
2021/06/16 03:16:28;;;;;;;4.30;3.90;;;;;;;19.75;65.00;98020.81;5048031;28;20242;-52
2021/06/16 03:18:54;;;;;;;4.60;4.00;;;;;;;19.80;65.60;98013.38;5051481;28;20984;-51
2021/06/16 03:21:21;;;;;;;5.00;4.50;;;;;;;19.48;65.72;98020.28;5051830;28;20237;-53
2021/06/16 03:23:49;;;;;;;5.65;4.47;;;;;;;19.45;66.29;98021.38;5051225;28;20207;-50
2021/06/16 03:26:17;;;;;;;5.47;4.70;;;;;;;19.09;67.34;98017.09;5047635;28;20246;-52
2021/06/16 03:28:46;;;;;;;5.22;4.40;;;;;;;19.07;67.58;98010.09;5047401;28;20233;-50
2021/06/16 03:31:13;;;;;;;4.82;4.10;;;;;;;19.36;66.71;98015.00;5051636;28;20238;-51
2021/06/16 03:33:41;;;;;;;4.57;4.18;;;;;;;18.96;67.39;98018.00;5050901;28;20237;-54
2021/06/16 03:36:09;;;;;;;5.50;4.35;;;;;;;18.88;67.88;98012.47;5050098;28;20240;-52
2021/06/16 03:38:37;;;;;;;4.72;4.22;;;;;;;18.83;68.08;98014.59;5051409;28;20237;-54
2021/06/16 03:41:04;;;;;;;5.38;4.43;;;;;;;18.76;68.31;98013.34;5047254;28;20238;-50
2021/06/16 03:43:31;;;;;;;5.43;4.20;;;;;;;18.53;69.19;98015.91;5050837;28;20217;-53
2021/06/16 03:45:59;;;;;;;4.70;4.20;;;;;;;18.66;69.07;98015.84;5049740;28;20865;-51
2021/06/16 03:48:27;;;;;;;4.25;3.85;;;;;;;18.97;68.22;98014.44;5048561;28;20261;-53
2021/06/16 03:50:54;;;;;;;5.53;4.18;;;;;;;19.27;66.94;98019.19;5049696;28;20242;-51
2021/06/16 03:53:21;;;;;;;4.82;4.05;;;;;;;19.30;66.68;98015.47;5047759;28;20230;-52
2021/06/16 03:55:49;;;;;;;4.53;4.13;;;;;;;19.17;67.47;98020.00;5047274;28;20238;-50
2021/06/16 03:58:16;;;;;;;6.10;4.47;;;;;;;18.75;68.76;98017.81;5048730;28;20225;-51
2021/06/16 04:00:43;;;;;;;4.78;4.20;;;;;;;18.81;68.71;98020.00;5050253;28;20242;-53
2021/06/16 04:03:13;;;;;;;5.28;4.40;;;;;;;19.13;68.02;98018.53;5048879;28;20216;-51
2021/06/16 04:05:40;;;;;;;4.65;4.22;;;;;;;18.87;68.70;98014.25;5045506;28;20249;-54
2021/06/16 04:08:08;;;;;;;5.07;4.57;;;;;;;18.82;69.04;98020.84;5050264;28;20675;-53
2021/06/16 04:10:36;;;;;;;4.68;4.28;;;;;;;18.96;68.84;98017.19;5048751;28;20238;-51
2021/06/16 04:13:03;;;;;;;5.65;4.07;;;;;;;19.17;67.80;98014.69;5049222;28;20237;-50
2021/06/16 04:15:29;;;;;;;4.70;4.15;;;;;;;19.18;67.77;98008.47;5049205;28;20237;-53
2021/06/16 04:17:58;;;;;;;4.90;4.15;;;;;;;19.08;68.04;98005.69;5050430;28;20217;-52
2021/06/16 04:20:27;;;;;;;4.60;4.20;;;;;;;19.24;68.01;98010.63;5049324;28;20269;-53
2021/06/16 04:22:54;;;;;;;5.30;3.97;;;;;;;19.15;68.23;98012.19;5048387;28;20716;-51
2021/06/16 04:25:22;;;;;;;4.40;3.63;;;;;;;19.24;68.18;98010.63;5051354;28;20210;-52
2021/06/16 04:27:49;;;;;;;5.13;4.65;;;;;;;19.30;68.06;98001.38;5049457;28;20230;-53
2021/06/16 04:30:16;;;;;;;5.43;4.38;;;;;;;19.52;67.92;98003.22;5049936;28;20245;-52
2021/06/16 04:32:43;;;;;;;5.47;4.80;;;;;;;19.57;67.12;98001.06;5049519;28;20247;-53
2021/06/16 04:35:11;;;;;;;4.95;4.47;;;;;;;20.08;65.65;98008.53;5050216;28;20254;-54
2021/06/16 04:37:39;;;;;;;4.65;4.20;;;;;;;20.69;64.04;98004.56;5048149;28;20220;-53
2021/06/16 04:40:07;;;;;;;4.60;3.92;;;;;;;20.60;64.06;98006.13;5048875;28;20244;-54
2021/06/16 04:42:34;;;;;;;4.82;4.40;;;;;;;20.75;63.76;98004.03;5048133;28;20248;-53
2021/06/16 04:45:01;;;;;;;4.70;4.20;;;;;;;20.31;65.29;98008.47;5051247;28;20213;-53
2021/06/16 04:47:27;;;;;;;4.55;4.15;;;;;;;20.37;65.75;98003.53;5051861;28;20242;-49
2021/06/16 04:49:54;;;;;;;5.55;4.22;;;;;;;20.31;66.18;98005.84;5051198;28;20225;-46
2021/06/16 04:52:20;;;;;;;7.43;4.68;;;;;;;20.70;64.75;98003.59;5047858;28;20238;-48
2021/06/16 04:54:48;;;;;;;5.40;4.70;;;;;;;21.20;63.44;98001.16;5049925;28;20222;-49
2021/06/16 04:57:14;;;;;;;5.20;4.40;;;;;;;21.45;62.94;97999.09;5046116;28;20237;-51
2021/06/16 04:59:41;;;;;;;11.90;5.43;;;;;;;21.35;63.35;98007.81;5050931;28;20237;-45
2021/06/16 05:02:08;;;;;;;18.60;7.50;;;;;;;21.44;64.11;97994.75;5040961;28;20323;-50
2021/06/16 05:04:34;;;;;;;18.50;7.70;;;;;;;21.83;64.08;97997.59;5043004;28;20209;-49
2021/06/16 05:07:01;;;;;;;23.30;8.57;;;;;;;21.63;66.10;97989.56;5046874;28;20248;-47
2021/06/16 05:09:27;;;;;;;19.00;6.25;;;;;;;21.79;66.00;97985.59;5054131;28;20722;-48
2021/06/16 05:11:55;;;;;;;13.63;6.55;;;;;;;21.43;64.83;97983.31;5052284;28;20247;-46
2021/06/16 05:14:23;;;;;;;16.83;6.85;;;;;;;21.77;64.78;97991.03;5052323;28;20601;-48
2021/06/16 05:16:50;;;;;;;13.57;6.30;;;;;;;21.76;65.16;97994.63;5053537;28;20261;-46
2021/06/16 05:19:19;;;;;;;9.75;5.65;;;;;;;22.27;63.18;97979.59;5053723;28;20244;-50
2021/06/16 05:21:46;;;;;;;12.52;6.03;;;;;;;22.90;61.06;97985.38;5054942;28;20249;-49
2021/06/16 05:24:13;;;;;;;9.38;5.05;;;;;;;23.10;60.44;97985.38;5052663;28;20221;-50
2021/06/16 05:26:41;;;;;;;7.78;5.25;;;;;;;23.61;58.77;97980.63;5056062;28;21041;-52
2021/06/16 05:29:09;;;;;;;9.25;5.75;;;;;;;23.32;60.28;97989.53;5052430;28;20241;-47
2021/06/16 05:31:36;;;;;;;7.93;6.13;;;;;;;22.10;63.78;97987.22;5055550;28;20250;-51
2021/06/16 05:34:03;;;;;;;8.25;5.85;;;;;;;22.69;61.89;97982.00;5055051;28;20238;-50
2021/06/16 05:36:30;;;;;;;11.43;6.22;;;;;;;22.06;63.22;97985.81;5050027;28;20233;-50
2021/06/16 05:38:56;;;;;;;7.38;5.75;;;;;;;22.80;61.25;97981.88;5056776;28;20238;-47
2021/06/16 05:41:23;;;;;;;8.98;6.18;;;;;;;22.18;63.96;97977.72;5052846;28;20248;-51
2021/06/16 05:43:49;;;;;;;9.75;6.25;;;;;;;22.46;63.42;97981.41;5056058;28;20703;-51
2021/06/16 05:46:17;;;;;;;6.78;6.18;;;;;;;22.42;63.13;97982.69;5054596;28;20252;-49
2021/06/16 05:48:44;;;;;;;7.35;6.60;;;;;;;23.01;61.79;97987.03;5047320;28;20755;-49
2021/06/16 05:51:10;;;;;;;9.73;6.43;;;;;;;23.16;61.02;97990.13;5052774;28;20249;-49
2021/06/16 05:53:37;;;;;;;7.32;6.15;;;;;;;22.70;62.53;97983.69;5050486;28;20242;-51
2021/06/16 05:56:03;;;;;;;7.50;6.15;;;;;;;23.39;60.55;97985.31;5055145;28;20245;-51
2021/06/16 05:58:30;;;;;;;6.82;6.07;;;;;;;22.78;63.32;97989.16;5052919;28;20237;-50
2021/06/16 06:00:57;;;;;;;6.05;5.32;;;;;;;23.59;61.24;97987.91;5049735;28;20240;-50
2021/06/16 06:03:25;;;;;;;6.50;5.75;;;;;;;23.67;60.25;97983.53;5050199;28;20739;-50
2021/06/16 06:05:51;;;;;;;5.80;5.22;;;;;;;23.50;61.18;97981.63;5054506;28;20245;-47
2021/06/16 06:08:18;;;;;;;6.28;5.43;;;;;;;24.13;58.21;97978.28;5053314;28;20217;-50
2021/06/16 06:10:44;;;;;;;6.03;5.45;;;;;;;24.62;58.66;97983.31;5051498;28;20276;-48
2021/06/16 06:13:11;;;;;;;7.53;6.65;;;;;;;24.30;58.53;97979.31;5051708;28;20225;-47
2021/06/16 06:15:37;;;;;;;7.22;6.00;;;;;;;24.08;58.39;97987.72;5050179;28;21191;-49
2021/06/16 06:18:04;;;;;;;7.78;6.15;;;;;;;23.36;59.83;97982.09;5052683;28;20228;-49
2021/06/16 06:20:32;;;;;;;6.32;5.72;;;;;;;23.43;59.12;97977.88;5051380;28;20246;-51
2021/06/16 06:22:59;;;;;;;7.05;5.78;;;;;;;23.51;59.51;97982.47;5051069;28;20229;-47
2021/06/16 06:25:25;;;;;;;6.65;5.88;;;;;;;23.78;58.64;97984.31;5050969;28;20234;-49
2021/06/16 06:27:52;;;;;;;9.02;5.85;;;;;;;23.91;58.56;97979.53;5052820;28;20222;-49
2021/06/16 06:30:18;;;;;;;6.05;5.45;;;;;;;25.11;55.05;97973.06;5052769;28;20238;-49
2021/06/16 06:32:45;;;;;;;8.13;5.47;;;;;;;25.47;54.94;97980.16;5050193;28;20209;-48
2021/06/16 06:35:12;;;;;;;6.53;4.93;;;;;;;26.46;52.07;97976.91;5052005;28;20245;-50
2021/06/16 06:37:40;;;;;;;6.00;5.40;;;;;;;25.94;52.65;97972.59;5052799;28;20225;-49
2021/06/16 06:40:07;;;;;;;8.27;5.68;;;;;;;26.21;53.17;97968.00;5049106;28;20711;-50
2021/06/16 06:42:34;;;;;;;5.90;5.28;;;;;;;25.04;53.96;97966.69;5051069;28;20246;-45
2021/06/16 06:45:01;;;;;;;5.70;5.20;;;;;;;26.73;52.15;97969.63;5052338;28;20721;-52
2021/06/16 06:47:27;;;;;;;8.70;5.55;;;;;;;27.15;50.79;97971.28;5054035;28;20241;-47
2021/06/16 06:49:54;;;;;;;7.93;7.10;;;;;;;27.32;49.43;97969.44;5053669;28;20245;-52
2021/06/16 06:52:21;;;;;;;5.65;4.97;;;;;;;27.98;47.30;97963.91;5048806;28;20593;-50
2021/06/16 06:54:48;;;;;;;6.88;5.10;;;;;;;28.83;47.19;97958.53;5052529;28;20230;-52
2021/06/16 06:57:15;;;;;;;5.40;4.88;;;;;;;28.97;46.20;97959.59;5050699;28;20882;-52
2021/06/16 06:59:42;;;;;;;5.50;5.00;;;;;;;29.05;46.20;97964.06;5050178;28;20248;-50
2021/06/16 07:02:08;;;;;;;6.43;5.80;;;;;;;28.74;46.08;97958.78;5050236;28;20230;-48
2021/06/16 07:04:35;;;;;;;5.60;5.07;;;;;;;29.12;45.58;97966.84;5051977;28;20225;-51
2021/06/16 07:07:01;;;;;;;6.20;5.30;;;;;;;30.03;43.89;97956.81;5048007;28;21153;-48
2021/06/16 07:09:28;;;;;;;6.60;5.30;;;;;;;30.01;45.05;97956.16;5053903;28;20246;-51
2021/06/16 07:11:56;;;;;;;6.35;5.18;;;;;;;29.90;44.39;97959.34;5048275;28;20299;-48
2021/06/16 07:14:23;;;;;;;5.28;4.78;;;;;;;29.39;45.41;97957.34;5048745;28;20229;-48
2021/06/16 07:16:49;;;;;;;5.70;5.20;;;;;;;28.58;45.83;97957.91;5049593;28;20233;-49
2021/06/16 07:19:16;;;;;;;6.32;5.30;;;;;;;28.99;45.27;97956.72;5049675;28;20241;-52
2021/06/16 07:21:42;;;;;;;5.50;5.00;;;;;;;30.39;42.79;97958.72;5050495;28;20921;-51
2021/06/16 07:24:10;;;;;;;5.30;4.88;;;;;;;30.05;43.76;97952.09;5052266;28;20214;-50
2021/06/16 07:26:36;;;;;;;5.25;4.75;;;;;;;29.47;45.04;97951.09;5046936;28;20246;-46
2021/06/16 07:29:04;;;;;;;5.57;5.07;;;;;;;29.40;45.10;97953.66;5051099;28;20360;-45
2021/06/16 07:31:31;;;;;;;6.13;5.53;;;;;;;30.37;43.27;97950.00;5046921;28;20242;-48
2021/06/16 07:33:57;;;;;;;5.90;4.75;;;;;;;30.90;41.55;97950.50;5049960;28;20702;-51
2021/06/16 07:36:24;;;;;;;5.75;5.25;;;;;;;29.74;44.51;97949.59;5049547;28;20238;-50
2021/06/16 07:38:50;;;;;;;6.05;4.70;;;;;;;31.49;41.09;97943.94;5050037;28;20242;-49
2021/06/16 07:41:17;;;;;;;5.85;5.25;;;;;;;31.56;40.94;97941.28;5051061;28;20237;-50
2021/06/16 07:43:43;;;;;;;6.22;5.25;;;;;;;31.19;42.45;97948.69;5050139;28;20225;-51
2021/06/16 07:46:11;;;;;;;6.70;5.00;;;;;;;31.18;42.53;97952.41;5047067;28;20238;-49
2021/06/16 07:48:38;;;;;;;5.13;4.63;;;;;;;32.70;39.30;97953.38;5049203;28;20230;-49
2021/06/16 07:51:05;;;;;;;5.10;4.70;;;;;;;31.50;42.23;97950.16;5051485;28;20248;-51
2021/06/16 07:53:31;;;;;;;7.72;5.47;;;;;;;32.02;39.54;97951.47;5052751;28;20213;-50
2021/06/16 07:55:58;;;;;;;6.07;5.20;;;;;;;31.40;40.36;97955.06;5050224;28;20738;-49
2021/06/16 07:58:25;;;;;;;7.07;5.00;;;;;;;31.57;40.32;97945.66;5051274;28;20214;-49
2021/06/16 08:00:52;;;;;;;5.88;5.28;;;;;;;32.71;38.61;97946.09;5050939;28;20242;-49
2021/06/16 08:03:20;;;;;;;5.28;4.78;;;;;;;31.73;40.23;97938.28;5050788;28;20453;-47
2021/06/16 08:05:47;;;;;;;5.78;5.03;;;;;;;33.21;38.55;97947.38;5048128;28;20329;-51
2021/06/16 08:08:14;;;;;;;5.65;5.07;;;;;;;31.67;39.65;97946.13;5050041;28;20214;-50
2021/06/16 08:10:40;;;;;;;5.47;4.90;;;;;;;32.60;38.40;97950.22;5048775;28;20308;-52
2021/06/16 08:13:07;;;;;;;5.07;4.55;;;;;;;33.08;38.30;97941.94;5049914;28;20213;-51
2021/06/16 08:15:35;;;;;;;5.43;4.93;;;;;;;32.79;40.33;97944.03;5050646;28;20244;-50
2021/06/16 08:18:02;;;;;;;5.47;4.97;;;;;;;33.50;37.71;97944.41;5048699;28;20218;-49
2021/06/16 08:20:30;;;;;;;5.57;4.80;;;;;;;33.90;36.54;97945.16;5048981;28;20242;-49
2021/06/16 08:22:56;;;;;;;5.60;5.10;;;;;;;33.31;38.29;97946.94;5048376;28;20214;-50
2021/06/16 08:25:23;;;;;;;5.18;4.68;;;;;;;32.74;38.53;97941.13;5049981;28;20245;-47
2021/06/16 08:27:50;;;;;;;5.60;5.10;;;;;;;33.49;36.63;97938.19;5048198;28;20674;-50
2021/06/16 08:30:18;;;;;;;6.15;4.85;;;;;;;33.46;37.32;97935.88;5048065;28;20234;-50
2021/06/16 08:32:45;;;;;;;4.22;3.92;;;;;;;32.85;38.75;97932.38;5050314;28;20220;-49
2021/06/16 08:35:13;;;;;;;6.25;5.00;;;;;;;33.19;38.91;97927.00;5047825;28;20241;-48
2021/06/16 08:37:41;;;;;;;5.18;4.55;;;;;;;33.81;35.98;97919.38;5049436;28;20222;-48
2021/06/16 08:40:08;;;;;;;4.85;4.45;;;;;;;34.36;35.54;97933.28;5048417;28;20246;-47
2021/06/16 08:42:35;;;;;;;4.63;4.20;;;;;;;34.66;35.51;97924.53;5050443;28;20736;-49
2021/06/16 08:45:02;;;;;;;4.80;4.30;;;;;;;34.30;35.92;97925.19;5047903;28;20222;-52
2021/06/16 08:47:29;;;;;;;4.88;4.05;;;;;;;33.98;35.46;97920.53;5047659;28;20469;-52
2021/06/16 08:49:56;;;;;;;5.00;4.53;;;;;;;35.31;34.35;97926.16;5047760;28;20229;-48
2021/06/16 08:52:24;;;;;;;7.50;4.32;;;;;;;34.31;36.73;97919.56;5047450;28;20242;-52
2021/06/16 08:54:52;;;;;;;4.68;4.35;;;;;;;33.63;33.38;97911.91;5048583;28;20242;-50
2021/06/16 08:57:18;;;;;;;4.22;3.85;;;;;;;33.22;33.49;97916.59;5047839;28;20237;-49
2021/06/16 08:59:45;;;;;;;4.97;4.47;;;;;;;34.59;33.22;97921.03;5051394;28;20234;-48
2021/06/16 09:02:11;;;;;;;5.28;3.63;;;;;;;34.19;31.43;97918.63;5048239;28;20244;-52
2021/06/16 09:04:49;;;;;;;5.25;4.10;;;;;;;34.60;32.24;97916.47;5049790;28;20239;-50
2021/06/16 09:07:17;;;;;;;26.00;10.77;;;;;;;35.09;32.30;97912.97;5047509;28;20321;-50
2021/06/16 09:09:44;;;;;;;4.70;3.88;;;;;;;34.50;31.33;97917.78;5048204;28;20230;-50
2021/06/16 09:12:13;;;;;;;5.70;4.22;;;;;;;33.28;31.09;97906.00;5049422;28;20237;-51
2021/06/16 09:14:50;;;;;;;4.72;4.10;;;;;;;31.11;34.42;97911.13;5050487;28;20230;-52
2021/06/16 09:17:21;;;;;;;4.38;3.97;;;;;;;33.88;32.39;97903.94;5045999;28;20263;-53
2021/06/16 09:19:51;;;;;;;4.55;3.92;;;;;;;33.49;31.77;97902.19;5049069;28;21102;-49
2021/06/16 09:22:18;;;;;;;4.55;3.78;;;;;;;32.80;32.45;97899.75;5047904;28;20233;-49
2021/06/16 09:24:46;;;;;;;5.13;4.13;;;;;;;34.71;31.18;97908.50;5049177;28;20209;-50
2021/06/16 09:27:39;;;;;;;4.30;4.00;;;;;;;34.82;30.97;97900.72;5049438;28;20250;-52
2021/06/16 09:30:31;;;;;;;4.40;3.95;;;;;;;33.01;32.42;97898.72;5049723;28;21073;-52
2021/06/16 09:32:59;;;;;;;7.10;3.97;;;;;;;33.68;32.25;97897.81;5049579;28;20234;-49
2021/06/16 09:35:27;;;;;;;3.95;3.65;;;;;;;32.67;32.79;97899.75;5048205;28;20242;-49
2021/06/16 09:37:54;;;;;;;4.72;3.53;;;;;;;31.47;34.15;97899.34;5047184;28;20773;-49
2021/06/16 09:40:25;;;;;;;4.72;4.22;;;;;;;32.93;32.48;97895.41;5051138;28;20241;-51
2021/06/16 09:42:56;;;;;;;6.57;3.88;;;;;;;32.07;33.49;97887.00;5050015;28;20213;-51
2021/06/16 09:45:23;;;;;;;4.25;3.85;;;;;;;34.23;30.61;97890.06;5048970;28;20245;-51
2021/06/16 09:47:50;;;;;;;4.32;4.00;;;;;;;33.56;31.46;97881.34;5052329;28;21061;-51
2021/06/16 09:50:23;;;;;;;4.30;3.85;;;;;;;33.55;30.42;97888.66;5052317;28;20238;-52
2021/06/16 09:52:50;;;;;;;6.32;3.45;;;;;;;33.68;31.58;97886.97;5053038;28;20220;-49
2021/06/16 09:55:25;;;;;;;4.65;3.72;;;;;;;33.22;32.20;97884.16;5049800;28;20229;-51
2021/06/16 09:58:01;;;;;;;4.70;3.97;;;;;;;32.69;31.84;97876.09;5051407;28;20216;-50
2021/06/16 10:00:29;;;;;;;4.38;3.40;;;;;;;32.34;32.81;97876.22;5052098;28;20257;-51
2021/06/16 10:03:12;;;;;;;4.75;4.30;;;;;;;30.39;36.05;97882.53;5052305;28;20241;-53
2021/06/16 10:06:04;;;;;;;4.28;3.90;;;;;;;32.93;34.81;97880.00;5049433;28;20878;-51
2021/06/16 10:08:32;;;;;;;5.10;3.92;;;;;;;33.88;34.70;97876.91;5052153;28;20238;-50
2021/06/16 10:10:58;;;;;;;4.68;4.25;;;;;;;33.66;32.98;97884.50;5052134;28;20241;-52
2021/06/16 10:13:27;;;;;;;4.80;3.97;;;;;;;32.70;34.12;97877.75;5050311;28;20217;-49
2021/06/16 10:15:54;;;;;;;5.03;4.20;;;;;;;31.95;34.72;97877.78;5050611;28;20391;-49
2021/06/16 10:18:21;;;;;;;3.92;3.63;;;;;;;33.00;32.92;97877.31;5052190;28;20213;-49
2021/06/16 10:20:48;;;;;;;4.28;3.88;;;;;;;34.27;31.74;97877.75;5051117;28;20295;-50
2021/06/16 10:23:14;;;;;;;4.53;4.05;;;;;;;34.19;31.89;97878.03;5053648;28;20859;-51
2021/06/16 10:25:41;;;;;;;4.13;3.72;;;;;;;33.78;32.86;97885.50;5050703;28;20234;-52
2021/06/16 10:28:08;;;;;;;4.97;3.47;;;;;;;33.17;31.26;97873.16;5051629;28;20221;-51
2021/06/16 10:30:40;;;;;;;3.70;3.40;;;;;;;32.21;30.25;97866.25;5053475;28;20272;-51
2021/06/16 10:33:32;;;;;;;3.78;3.28;;;;;;;33.72;29.45;97866.56;5051575;28;20213;-52
2021/06/16 10:36:13;;;;;;;3.97;3.45;;;;;;;33.69;29.57;97867.00;5050558;28;20271;-49
2021/06/16 10:38:41;;;;;;;5.82;4.03;;;;;;;33.35;30.70;97867.09;5052236;28;20226;-48
2021/06/16 10:41:08;;;;;;;4.40;4.07;;;;;;;31.66;32.19;97868.13;5051076;28;20242;-49
2021/06/16 10:43:35;;;;;;;4.10;3.75;;;;;;;32.41;31.69;97860.88;5054538;28;20214;-53
2021/06/16 10:46:13;;;;;;;4.85;3.75;;;;;;;32.25;32.35;97861.28;5049522;28;20234;-51
2021/06/16 10:49:04;;;;;;;4.07;3.67;;;;;;;32.90;31.45;97860.69;5050792;28;20946;-47
2021/06/16 10:51:40;;;;;;;4.53;4.00;;;;;;;32.61;32.42;97860.09;5050906;28;20245;-51
2021/06/16 10:54:19;;;;;;;4.60;4.20;;;;;;;32.19;35.46;97856.72;5052850;28;20209;-48
2021/06/16 10:56:47;;;;;;;4.75;3.60;;;;;;;31.60;35.18;97855.47;5048971;28;20256;-51
2021/06/16 10:59:14;;;;;;;4.15;3.85;;;;;;;32.49;33.63;97850.91;5049524;28;20270;-49
2021/06/16 11:01:51;;;;;;;4.30;3.90;;;;;;;32.69;34.07;97850.97;5049472;28;20730;-50
2021/06/16 11:04:31;;;;;;;4.63;4.10;;;;;;;32.90;34.53;97852.59;5049903;28;20226;-48
2021/06/16 11:06:58;;;;;;;4.90;3.72;;;;;;;32.46;34.39;97842.22;5049599;28;20234;-51
2021/06/16 11:09:47;;;;;;;3.95;3.47;;;;;;;32.08;34.38;97834.69;5051436;28;20241;-49
2021/06/16 11:12:14;;;;;;;4.05;3.65;;;;;;;32.04;34.61;97838.00;5049016;28;20249;-49
2021/06/16 11:14:48;;;;;;;4.38;3.97;;;;;;;31.67;35.76;97834.72;5050812;28;20707;-49
2021/06/16 11:17:44;;;;;;;4.35;3.90;;;;;;;32.23;35.01;97842.59;5049928;28;20272;-49
2021/06/16 11:20:14;;;;;;;4.20;3.63;;;;;;;32.37;34.39;97838.06;5051200;28;20806;-53
2021/06/16 11:22:48;;;;;;;5.47;3.83;;;;;;;32.80;34.07;97826.03;5049324;28;20259;-50
2021/06/16 11:25:37;;;;;;;4.20;3.42;;;;;;;32.41;33.05;97823.09;5049895;28;20295;-49
2021/06/16 11:28:09;;;;;;;4.13;3.55;;;;;;;32.26;30.98;97823.28;5047480;28;20222;-50
2021/06/16 11:30:38;;;;;;;4.07;3.78;;;;;;;32.60;32.62;97826.84;5049814;28;20268;-49
2021/06/16 11:33:27;;;;;;;5.93;3.97;;;;;;;32.08;32.55;97817.66;5050430;28;20301;-46
2021/06/16 11:35:56;;;;;;;3.80;3.50;;;;;;;31.85;31.08;97809.91;5049984;28;21163;-46
2021/06/16 11:38:29;;;;;;;6.13;3.80;;;;;;;31.46;31.74;97811.41;5050369;28;20663;-50
2021/06/16 11:40:57;;;;;;;4.32;3.92;;;;;;;31.40;32.11;97815.75;5050581;28;20230;-49